N987 SKSP-MROC
Flight info
| Callsign | N987 |
|---|---|
| Flight time | 0h 56m |
| Altitude | 30000 |
| Route | AMUBI3B AMUBI UP798 COLOR BARRA3C |
| Aircraft | B738/M-SDE2E3FGHIRWXY/LB1 |
Departure
| Time | 2026-05-09 01:08 |
|---|---|
| Airport | Gustavo Rojas Pinilla International Airport (SKSP) |
Arrival
| Time | 2026-05-09 02:04 |
|---|---|
| Airport | Juan Santamaría International Airport (MROC) |
| Time | Latitude | Longitude | Altitude | Speed | Heading |
|---|---|---|---|---|---|
| 2026-05-09 00:56 | 12.58643 | -81.70306 | 33 ft | 1 kts | 149° |
| 2026-05-09 00:57 | 12.58657 | -81.70314 | 33 ft | 4 kts | 149° |
| 2026-05-09 00:57 | 12.58676 | -81.70325 | 33 ft | 4 kts | 159° |
| 2026-05-09 00:57 | 12.58701 | -81.70330 | 33 ft | 4 kts | 198° |
| 2026-05-09 00:58 | 12.58715 | -81.70320 | 32 ft | 0 kts | 239° |
| 2026-05-09 01:01 | 12.58715 | -81.70321 | 32 ft | 1 kts | 238° |
| 2026-05-09 01:01 | 12.58710 | -81.70330 | 31 ft | 2 kts | 238° |
| 2026-05-09 01:02 | 12.58699 | -81.70350 | 33 ft | 4 kts | 252° |
| 2026-05-09 01:02 | 12.58705 | -81.70369 | 33 ft | 2 kts | 295° |
| 2026-05-09 01:02 | 12.58705 | -81.70370 | 33 ft | 0 kts | 295° |
| 2026-05-09 01:02 | 12.58712 | -81.70384 | 33 ft | 5 kts | 295° |
| 2026-05-09 01:03 | 12.58731 | -81.70449 | 34 ft | 13 kts | 271° |
| 2026-05-09 01:03 | 12.58696 | -81.70542 | 36 ft | 17 kts | 240° |
| 2026-05-09 01:03 | 12.58628 | -81.70657 | 39 ft | 21 kts | 239° |
| 2026-05-09 01:03 | 12.58547 | -81.70798 | 45 ft | 25 kts | 239° |
| 2026-05-09 01:04 | 12.58451 | -81.70964 | 53 ft | 29 kts | 240° |
| 2026-05-09 01:04 | 12.58354 | -81.71135 | 54 ft | 27 kts | 240° |
| 2026-05-09 01:04 | 12.58259 | -81.71296 | 57 ft | 26 kts | 239° |
| 2026-05-09 01:04 | 12.58172 | -81.71448 | 58 ft | 24 kts | 240° |
| 2026-05-09 01:05 | 12.58092 | -81.71591 | 65 ft | 23 kts | 240° |
| 2026-05-09 01:05 | 12.58014 | -81.71729 | 72 ft | 22 kts | 240° |
| 2026-05-09 01:05 | 12.57864 | -81.71991 | 81 ft | 16 kts | 232° |
| 2026-05-09 01:06 | 12.57824 | -81.72002 | 84 ft | 5 kts | 185° |
| 2026-05-09 01:06 | 12.57810 | -81.72022 | 82 ft | 2 kts | 282° |
| 2026-05-09 01:06 | 12.57827 | -81.72028 | 82 ft | 3 kts | 353° |
| 2026-05-09 01:06 | 12.57844 | -81.72015 | 85 ft | 4 kts | 53° |
| 2026-05-09 01:07 | 12.57850 | -81.72006 | 81 ft | 2 kts | 57° |
| 2026-05-09 01:07 | 12.57978 | -81.71786 | 66 ft | 80 kts | 60° |
| 2026-05-09 01:07 | 12.58404 | -81.71043 | 61 ft | 158 kts | 60° |
| 2026-05-09 01:07 | 12.59016 | -81.69953 | 547 ft | 188 kts | 60° |
| 2026-05-09 01:08 | 12.59734 | -81.68692 | 805 ft | 233 kts | 59° |
| 2026-05-09 01:08 | 12.60509 | -81.67322 | 2183 ft | 197 kts | 63° |
| 2026-05-09 01:08 | 12.60710 | -81.66068 | 3680 ft | 173 kts | 103° |
| 2026-05-09 01:08 | 12.60001 | -81.65107 | 4550 ft | 187 kts | 145° |
| 2026-05-09 01:09 | 12.58616 | -81.64859 | 4842 ft | 225 kts | 187° |
| 2026-05-09 01:09 | 12.57184 | -81.65693 | 5040 ft | 255 kts | 227° |
| 2026-05-09 01:09 | 12.56272 | -81.67311 | 5409 ft | 269 kts | 245° |
| 2026-05-09 01:09 | 12.55548 | -81.69101 | 5984 ft | 273 kts | 246° |
| 2026-05-09 01:10 | 12.54754 | -81.70868 | 6579 ft | 275 kts | 242° |
| 2026-05-09 01:10 | 12.53821 | -81.72586 | 7154 ft | 277 kts | 237° |
| 2026-05-09 01:10 | 12.52771 | -81.74240 | 7714 ft | 279 kts | 233° |
| 2026-05-09 01:10 | 12.51648 | -81.75811 | 8249 ft | 280 kts | 231° |
| 2026-05-09 01:11 | 12.50449 | -81.77355 | 8767 ft | 282 kts | 229° |
| 2026-05-09 01:11 | 12.49175 | -81.78895 | 9259 ft | 286 kts | 227° |
| 2026-05-09 01:11 | 12.47848 | -81.80430 | 9681 ft | 294 kts | 226° |
| 2026-05-09 01:11 | 12.46427 | -81.82023 | 9937 ft | 310 kts | 225° |
| 2026-05-09 01:12 | 12.44922 | -81.83673 | 10325 ft | 327 kts | 225° |
| 2026-05-09 01:12 | 12.43297 | -81.85425 | 10500 ft | 350 kts | 225° |
| 2026-05-09 01:12 | 12.41569 | -81.87269 | 10728 ft | 368 kts | 225° |
| 2026-05-09 01:12 | 12.39768 | -81.89179 | 11244 ft | 375 kts | 224° |
| 2026-05-09 01:13 | 12.37967 | -81.91080 | 11901 ft | 378 kts | 224° |
| 2026-05-09 01:13 | 12.36134 | -81.93010 | 12605 ft | 379 kts | 224° |
| 2026-05-09 01:13 | 12.34286 | -81.94950 | 13217 ft | 383 kts | 224° |
| 2026-05-09 01:13 | 12.32417 | -81.96910 | 13789 ft | 387 kts | 225° |
| 2026-05-09 01:14 | 12.30529 | -81.98886 | 14388 ft | 390 kts | 225° |
| 2026-05-09 01:14 | 12.28623 | -82.00881 | 14953 ft | 394 kts | 225° |
| 2026-05-09 01:14 | 12.26699 | -82.02895 | 15495 ft | 398 kts | 225° |
| 2026-05-09 01:14 | 12.24759 | -82.04925 | 16031 ft | 401 kts | 225° |
| 2026-05-09 01:15 | 12.22800 | -82.06974 | 16558 ft | 404 kts | 225° |
| 2026-05-09 01:15 | 12.20856 | -82.09007 | 17057 ft | 408 kts | 225° |
| 2026-05-09 01:15 | 12.18865 | -82.11088 | 17558 ft | 411 kts | 225° |
| 2026-05-09 01:15 | 12.16857 | -82.13186 | 18070 ft | 414 kts | 225° |
| 2026-05-09 01:16 | 12.14836 | -82.15296 | 18545 ft | 417 kts | 225° |
| 2026-05-09 01:16 | 12.12801 | -82.17423 | 18971 ft | 421 kts | 225° |
| 2026-05-09 01:16 | 12.10767 | -82.19548 | 19398 ft | 424 kts | 225° |
| 2026-05-09 01:17 | 12.06603 | -82.23895 | 20204 ft | 431 kts | 225° |
| 2026-05-09 01:17 | 12.04498 | -82.26092 | 20614 ft | 434 kts | 225° |
| 2026-05-09 01:17 | 12.02406 | -82.28274 | 20985 ft | 438 kts | 225° |
| 2026-05-09 01:17 | 12.00264 | -82.30508 | 21356 ft | 441 kts | 225° |
| 2026-05-09 01:18 | 11.98115 | -82.32749 | 21695 ft | 444 kts | 225° |
| 2026-05-09 01:18 | 11.95941 | -82.35016 | 22055 ft | 447 kts | 224° |
| 2026-05-09 01:18 | 11.93760 | -82.37290 | 22398 ft | 450 kts | 224° |
| 2026-05-09 01:18 | 11.91563 | -82.39581 | 22724 ft | 452 kts | 224° |
| 2026-05-09 01:19 | 11.89355 | -82.41881 | 23053 ft | 455 kts | 224° |
| 2026-05-09 01:19 | 11.87158 | -82.44170 | 23332 ft | 458 kts | 224° |
| 2026-05-09 01:19 | 11.84895 | -82.46526 | 23660 ft | 460 kts | 224° |
| 2026-05-09 01:19 | 11.82674 | -82.48838 | 23949 ft | 463 kts | 224° |
| 2026-05-09 01:20 | 11.80415 | -82.51190 | 24234 ft | 466 kts | 224° |
| 2026-05-09 01:20 | 11.78145 | -82.53552 | 24522 ft | 468 kts | 224° |
| 2026-05-09 01:20 | 11.75864 | -82.55926 | 24874 ft | 468 kts | 224° |
| 2026-05-09 01:20 | 11.73583 | -82.58298 | 25187 ft | 469 kts | 224° |
| 2026-05-09 01:21 | 11.71297 | -82.60676 | 25464 ft | 471 kts | 224° |
| 2026-05-09 01:21 | 11.69030 | -82.63033 | 25754 ft | 472 kts | 224° |
| 2026-05-09 01:21 | 11.66729 | -82.65426 | 26013 ft | 474 kts | 224° |
| 2026-05-09 01:21 | 11.64416 | -82.67830 | 26306 ft | 475 kts | 224° |
| 2026-05-09 01:22 | 11.62104 | -82.70231 | 26602 ft | 476 kts | 224° |
| 2026-05-09 01:22 | 11.59779 | -82.72644 | 26841 ft | 477 kts | 224° |
| 2026-05-09 01:22 | 11.57440 | -82.75043 | 27089 ft | 479 kts | 224° |
| 2026-05-09 01:22 | 11.55077 | -82.77446 | 27370 ft | 480 kts | 224° |
| 2026-05-09 01:23 | 11.52708 | -82.79848 | 27623 ft | 481 kts | 224° |
| 2026-05-09 01:23 | 11.50333 | -82.82255 | 27860 ft | 482 kts | 224° |
| 2026-05-09 01:23 | 11.47955 | -82.84666 | 28140 ft | 482 kts | 224° |
| 2026-05-09 01:23 | 11.45581 | -82.87076 | 28484 ft | 481 kts | 224° |
| 2026-05-09 01:24 | 11.43249 | -82.89447 | 28873 ft | 478 kts | 224° |
| 2026-05-09 01:24 | 11.40899 | -82.91835 | 29267 ft | 476 kts | 224° |
| 2026-05-09 01:24 | 11.38557 | -82.94216 | 29628 ft | 475 kts | 225° |
| 2026-05-09 01:24 | 11.36224 | -82.96587 | 29890 ft | 473 kts | 225° |
| 2026-05-09 01:25 | 11.31564 | -83.01321 | 29892 ft | 473 kts | 225° |
| 2026-05-09 01:25 | 11.26929 | -83.06027 | 29896 ft | 474 kts | 225° |
| 2026-05-09 01:26 | 11.22254 | -83.10771 | 29910 ft | 475 kts | 225° |
| 2026-05-09 01:26 | 11.17566 | -83.15526 | 29911 ft | 476 kts | 225° |
| 2026-05-09 01:27 | 11.12874 | -83.20283 | 29918 ft | 476 kts | 225° |
| 2026-05-09 01:27 | 11.08189 | -83.25030 | 29918 ft | 475 kts | 225° |
| 2026-05-09 01:28 | 11.03533 | -83.29746 | 29914 ft | 475 kts | 225° |
| 2026-05-09 01:28 | 10.98856 | -83.34481 | 29916 ft | 473 kts | 225° |
| 2026-05-09 01:29 | 10.94197 | -83.39196 | 29917 ft | 472 kts | 225° |
| 2026-05-09 01:29 | 10.89538 | -83.43908 | 29924 ft | 471 kts | 225° |
| 2026-05-09 01:30 | 10.84894 | -83.48604 | 29919 ft | 467 kts | 225° |
| 2026-05-09 01:30 | 10.80370 | -83.53177 | 29921 ft | 458 kts | 225° |
| 2026-05-09 01:31 | 10.75845 | -83.57756 | 29823 ft | 460 kts | 226° |
| 2026-05-09 01:31 | 10.73914 | -83.60333 | 29353 ft | 457 kts | 239° |
| 2026-05-09 01:31 | 10.72308 | -83.63091 | 28879 ft | 452 kts | 240° |
| 2026-05-09 01:32 | 10.70757 | -83.65862 | 28379 ft | 448 kts | 240° |
| 2026-05-09 01:32 | 10.69229 | -83.68611 | 27887 ft | 445 kts | 240° |
| 2026-05-09 01:32 | 10.67703 | -83.71333 | 27397 ft | 442 kts | 240° |
| 2026-05-09 01:32 | 10.66192 | -83.73997 | 26917 ft | 439 kts | 240° |
| 2026-05-09 01:33 | 10.64663 | -83.76668 | 26431 ft | 436 kts | 239° |
| 2026-05-09 01:33 | 10.63136 | -83.79318 | 25952 ft | 433 kts | 239° |
| 2026-05-09 01:33 | 10.61612 | -83.81951 | 25472 ft | 430 kts | 239° |
| 2026-05-09 01:33 | 10.60099 | -83.84561 | 24997 ft | 428 kts | 239° |
| 2026-05-09 01:34 | 10.58593 | -83.87156 | 24525 ft | 425 kts | 239° |
| 2026-05-09 01:34 | 10.57093 | -83.89741 | 24052 ft | 423 kts | 239° |
| 2026-05-09 01:34 | 10.55623 | -83.92275 | 23579 ft | 421 kts | 239° |
| 2026-05-09 01:34 | 10.54142 | -83.94829 | 23123 ft | 418 kts | 239° |
| 2026-05-09 01:35 | 10.52667 | -83.97369 | 22663 ft | 416 kts | 239° |
| 2026-05-09 01:35 | 10.51204 | -83.99890 | 22190 ft | 413 kts | 239° |
| 2026-05-09 01:35 | 10.49747 | -84.02400 | 21734 ft | 411 kts | 239° |
| 2026-05-09 01:35 | 10.48300 | -84.04894 | 21278 ft | 408 kts | 239° |
| 2026-05-09 01:36 | 10.46863 | -84.07368 | 20820 ft | 406 kts | 239° |
| 2026-05-09 01:36 | 10.45432 | -84.09832 | 20360 ft | 403 kts | 239° |
| 2026-05-09 01:36 | 10.44011 | -84.12278 | 19914 ft | 400 kts | 239° |
| 2026-05-09 01:36 | 10.42621 | -84.14670 | 19471 ft | 397 kts | 240° |
| 2026-05-09 01:37 | 10.41219 | -84.17083 | 19022 ft | 395 kts | 240° |
| 2026-05-09 01:37 | 10.39829 | -84.19473 | 18586 ft | 391 kts | 240° |
| 2026-05-09 01:37 | 10.38452 | -84.21841 | 18155 ft | 389 kts | 240° |
| 2026-05-09 01:37 | 10.37081 | -84.24199 | 17724 ft | 386 kts | 240° |
| 2026-05-09 01:38 | 10.35720 | -84.26538 | 17278 ft | 384 kts | 240° |
| 2026-05-09 01:38 | 10.34369 | -84.28859 | 16847 ft | 381 kts | 240° |
| 2026-05-09 01:38 | 10.33023 | -84.31174 | 16411 ft | 379 kts | 240° |
| 2026-05-09 01:38 | 10.31702 | -84.33443 | 15988 ft | 377 kts | 240° |
| 2026-05-09 01:39 | 10.30370 | -84.35731 | 15550 ft | 375 kts | 239° |
| 2026-05-09 01:39 | 10.29047 | -84.38005 | 15099 ft | 373 kts | 239° |
| 2026-05-09 01:39 | 10.27731 | -84.40264 | 14683 ft | 370 kts | 239° |
| 2026-05-09 01:39 | 10.26426 | -84.42505 | 14244 ft | 368 kts | 239° |
| 2026-05-09 01:40 | 10.25122 | -84.44743 | 13760 ft | 368 kts | 239° |
| 2026-05-09 01:40 | 10.23837 | -84.46949 | 13593 ft | 358 kts | 239° |
| 2026-05-09 01:40 | 10.22603 | -84.49067 | 13428 ft | 349 kts | 239° |
| 2026-05-09 01:40 | 10.21775 | -84.50489 | 13322 ft | 343 kts | 239° |
| 2026-05-09 01:41 | 10.20194 | -84.53202 | 13116 ft | 332 kts | 239° |
| 2026-05-09 01:41 | 10.19032 | -84.55193 | 12984 ft | 324 kts | 239° |
| 2026-05-09 01:41 | 10.17904 | -84.57127 | 12758 ft | 317 kts | 239° |
| 2026-05-09 01:41 | 10.16664 | -84.58960 | 12377 ft | 313 kts | 223° |
| 2026-05-09 01:42 | 10.14891 | -84.60165 | 12060 ft | 304 kts | 198° |
| 2026-05-09 01:42 | 10.12862 | -84.60529 | 11818 ft | 293 kts | 175° |
| 2026-05-09 01:42 | 10.10886 | -84.60178 | 11582 ft | 285 kts | 156° |
| 2026-05-09 01:42 | 10.09144 | -84.59293 | 11394 ft | 286 kts | 147° |
| 2026-05-09 01:43 | 10.07988 | -84.58586 | 11246 ft | 289 kts | 146° |
| 2026-05-09 01:43 | 10.05712 | -84.57163 | 10921 ft | 289 kts | 146° |
| 2026-05-09 01:43 | 10.04014 | -84.56114 | 10692 ft | 281 kts | 147° |
| 2026-05-09 01:43 | 10.02364 | -84.55104 | 10459 ft | 273 kts | 147° |
| 2026-05-09 01:44 | 10.00753 | -84.54126 | 10250 ft | 266 kts | 147° |
| 2026-05-09 01:44 | 9.99183 | -84.53177 | 10031 ft | 259 kts | 147° |
| 2026-05-09 01:44 | 9.98165 | -84.52561 | 9841 ft | 257 kts | 147° |
| 2026-05-09 01:44 | 9.96632 | -84.51632 | 9503 ft | 256 kts | 148° |
| 2026-05-09 01:45 | 9.94611 | -84.50408 | 9080 ft | 255 kts | 148° |
| 2026-05-09 01:45 | 9.93096 | -84.49490 | 8757 ft | 253 kts | 148° |
| 2026-05-09 01:45 | 9.91612 | -84.48553 | 8383 ft | 249 kts | 140° |
| 2026-05-09 01:45 | 9.90847 | -84.47701 | 8136 ft | 246 kts | 120° |
| 2026-05-09 01:46 | 9.90347 | -84.45519 | 7713 ft | 239 kts | 85° |
| 2026-05-09 01:46 | 9.90560 | -84.44428 | 7503 ft | 236 kts | 73° |
| 2026-05-09 01:46 | 9.91110 | -84.42878 | 7212 ft | 231 kts | 69° |
| 2026-05-09 01:46 | 9.91706 | -84.41381 | 6887 ft | 227 kts | 69° |
| 2026-05-09 01:47 | 9.92454 | -84.39427 | 6461 ft | 222 kts | 70° |
| 2026-05-09 01:47 | 9.92999 | -84.37982 | 6188 ft | 217 kts | 70° |
| 2026-05-09 01:47 | 9.93356 | -84.37030 | 5996 ft | 210 kts | 70° |
| 2026-05-09 01:47 | 9.93863 | -84.35670 | 5715 ft | 202 kts | 70° |
| 2026-05-09 01:48 | 9.94340 | -84.34390 | 5455 ft | 193 kts | 70° |
| 2026-05-09 01:48 | 9.94806 | -84.33143 | 5207 ft | 185 kts | 70° |
| 2026-05-09 01:48 | 9.95253 | -84.31948 | 4965 ft | 177 kts | 70° |
| 2026-05-09 01:48 | 9.95680 | -84.30805 | 4728 ft | 169 kts | 70° |
| 2026-05-09 01:49 | 9.96095 | -84.29697 | 4545 ft | 167 kts | 70° |
| 2026-05-09 01:49 | 9.96615 | -84.28299 | 4236 ft | 154 kts | 70° |
| 2026-05-09 01:49 | 9.96870 | -84.27618 | 4104 ft | 153 kts | 70° |
| 2026-05-09 01:49 | 9.97375 | -84.26265 | 3842 ft | 157 kts | 70° |
| 2026-05-09 01:50 | 9.97633 | -84.25577 | 3697 ft | 157 kts | 70° |
| 2026-05-09 01:50 | 9.98018 | -84.24547 | 3485 ft | 155 kts | 70° |
| 2026-05-09 01:50 | 9.98426 | -84.23536 | 3323 ft | 154 kts | 66° |
| 2026-05-09 01:50 | 9.98915 | -84.22568 | 3254 ft | 158 kts | 62° |
| 2026-05-09 01:51 | 9.99471 | -84.21623 | 3865 ft | 140 kts | 71° |
| 2026-05-09 01:51 | 9.99807 | -84.20749 | 4560 ft | 135 kts | 73° |
| 2026-05-09 01:51 | 10.00093 | -84.19731 | 4773 ft | 166 kts | 75° |
| 2026-05-09 01:51 | 10.00456 | -84.18513 | 5053 ft | 199 kts | 73° |
| 2026-05-09 01:52 | 10.00920 | -84.17095 | 5357 ft | 222 kts | 71° |
| 2026-05-09 01:52 | 10.01429 | -84.15592 | 5971 ft | 229 kts | 76° |
| 2026-05-09 01:52 | 10.01448 | -84.13980 | 6696 ft | 232 kts | 107° |
| 2026-05-09 01:52 | 10.00663 | -84.12577 | 7509 ft | 233 kts | 135° |
| 2026-05-09 01:53 | 9.99271 | -84.11733 | 8264 ft | 239 kts | 165° |
| 2026-05-09 01:53 | 9.97610 | -84.11737 | 8984 ft | 245 kts | 197° |
| 2026-05-09 01:53 | 9.96595 | -84.12244 | 9466 ft | 248 kts | 217° |
| 2026-05-09 01:53 | 9.95326 | -84.14162 | 9960 ft | 257 kts | 260° |
| 2026-05-09 01:54 | 9.95450 | -84.16056 | 10024 ft | 282 kts | 288° |
| 2026-05-09 01:54 | 9.96157 | -84.17985 | 10013 ft | 304 kts | 293° |
| 2026-05-09 01:54 | 9.96971 | -84.19972 | 9999 ft | 306 kts | 292° |
| 2026-05-09 01:54 | 9.97612 | -84.22026 | 9982 ft | 306 kts | 276° |
| 2026-05-09 01:55 | 9.97396 | -84.24148 | 10001 ft | 306 kts | 249° |
| 2026-05-09 01:55 | 9.96305 | -84.25979 | 10007 ft | 305 kts | 228° |
| 2026-05-09 01:55 | 9.94901 | -84.27577 | 9998 ft | 302 kts | 226° |
| 2026-05-09 01:55 | 9.93467 | -84.29146 | 10004 ft | 305 kts | 226° |
| 2026-05-09 01:56 | 9.92056 | -84.30678 | 10004 ft | 306 kts | 226° |
| 2026-05-09 01:56 | 9.90584 | -84.32277 | 9994 ft | 306 kts | 226° |
| 2026-05-09 01:56 | 9.89138 | -84.33853 | 9993 ft | 306 kts | 226° |
| 2026-05-09 01:56 | 9.87684 | -84.35442 | 10002 ft | 306 kts | 226° |
| 2026-05-09 01:57 | 9.86247 | -84.37015 | 9985 ft | 301 kts | 226° |
| 2026-05-09 01:57 | 9.84856 | -84.38537 | 9973 ft | 287 kts | 226° |
| 2026-05-09 01:57 | 9.83577 | -84.40005 | 9973 ft | 268 kts | 236° |
| 2026-05-09 01:57 | 9.82942 | -84.41714 | 10000 ft | 260 kts | 265° |
| 2026-05-09 01:58 | 9.83110 | -84.43506 | 9996 ft | 262 kts | 290° |
| 2026-05-09 01:58 | 9.84005 | -84.45125 | 9558 ft | 268 kts | 315° |
| 2026-05-09 01:58 | 9.85483 | -84.46215 | 9164 ft | 262 kts | 338° |
| 2026-05-09 01:58 | 9.87227 | -84.46646 | 8762 ft | 256 kts | 2° |
| 2026-05-09 01:59 | 9.88908 | -84.46216 | 8367 ft | 248 kts | 30° |
| 2026-05-09 01:59 | 9.90189 | -84.45098 | 7993 ft | 241 kts | 54° |
| 2026-05-09 01:59 | 9.90968 | -84.43623 | 7626 ft | 236 kts | 68° |
| 2026-05-09 01:59 | 9.91541 | -84.42083 | 7261 ft | 231 kts | 71° |
| 2026-05-09 02:00 | 9.92079 | -84.40554 | 6812 ft | 231 kts | 71° |
| 2026-05-09 02:00 | 9.92619 | -84.39021 | 6427 ft | 228 kts | 70° |
| 2026-05-09 02:00 | 9.93160 | -84.37547 | 6100 ft | 224 kts | 70° |
| 2026-05-09 02:00 | 9.93705 | -84.36089 | 5809 ft | 218 kts | 70° |
| 2026-05-09 02:01 | 9.94236 | -84.34669 | 5517 ft | 212 kts | 70° |
| 2026-05-09 02:01 | 9.94743 | -84.33313 | 5257 ft | 199 kts | 70° |
| 2026-05-09 02:01 | 9.95217 | -84.32045 | 4986 ft | 186 kts | 70° |
| 2026-05-09 02:01 | 9.95661 | -84.30854 | 4740 ft | 175 kts | 70° |
| 2026-05-09 02:02 | 9.96069 | -84.29761 | 4529 ft | 159 kts | 70° |
| 2026-05-09 02:02 | 9.96452 | -84.28737 | 4323 ft | 154 kts | 70° |
| 2026-05-09 02:02 | 9.96831 | -84.27720 | 4133 ft | 156 kts | 70° |
| 2026-05-09 02:02 | 9.97212 | -84.26703 | 3926 ft | 157 kts | 70° |
| 2026-05-09 02:03 | 9.97599 | -84.25667 | 3715 ft | 157 kts | 70° |
| 2026-05-09 02:03 | 9.97984 | -84.24640 | 3508 ft | 155 kts | 70° |
| 2026-05-09 02:03 | 9.98371 | -84.23617 | 3312 ft | 155 kts | 70° |
| 2026-05-09 02:03 | 9.98745 | -84.22588 | 3093 ft | 155 kts | 70° |
| 2026-05-09 02:04 | 9.99133 | -84.21570 | 2983 ft | 146 kts | 69° |
| 2026-05-09 02:04 | 9.99451 | -84.20721 | 3028 ft | 107 kts | 69° |
| 2026-05-09 02:04 | 9.99632 | -84.20240 | 3035 ft | 30 kts | 69° |
| 2026-05-09 02:04 | 9.99713 | -84.20141 | 3034 ft | 9 kts | 351° |
| 2026-05-09 02:05 | 9.99715 | -84.20142 | 3034 ft | 0 kts | 344° |
| 2026-05-09 02:06 | 9.99746 | -84.20157 | 3033 ft | 7 kts | 322° |
| 2026-05-09 02:06 | 9.99748 | -84.20189 | 3033 ft | 5 kts | 244° |
| 2026-05-09 02:07 | 9.99722 | -84.20255 | 3033 ft | 5 kts | 249° |
| 2026-05-09 02:07 | 9.99711 | -84.20286 | 3033 ft | 4 kts | 251° |
| 2026-05-09 02:07 | 9.99721 | -84.20301 | 3033 ft | 3 kts | 326° |
| 2026-05-09 02:07 | 9.99738 | -84.20308 | 3033 ft | 3 kts | 338° |
| 2026-05-09 02:08 | 9.99748 | -84.20312 | 3033 ft | 1 kts | 338° |
| 2026-05-09 02:08 | 9.99755 | -84.20315 | 3033 ft | 1 kts | 338° |
| 2026-05-09 02:08 | 9.99756 | -84.20315 | 3033 ft | 0 kts | 338° |